sensor_id;sensor_type;location;lat;lon;timestamp;P1;durP1;ratioP1;P2;durP2;ratioP2
7971;SDS011;4031;49.758;6.120;2023-05-01T00:00:42;3.17;;;2.90;;
7971;SDS011;4031;49.758;6.120;2023-05-01T00:03:08;3.60;;;3.30;;
7971;SDS011;4031;49.758;6.120;2023-05-01T00:05:33;4.00;;;3.70;;
7971;SDS011;4031;49.758;6.120;2023-05-01T00:07:59;3.20;;;2.97;;
7971;SDS011;4031;49.758;6.120;2023-05-01T00:10:25;3.43;;;3.13;;
7971;SDS011;4031;49.758;6.120;2023-05-01T00:12:50;3.40;;;3.10;;
7971;SDS011;4031;49.758;6.120;2023-05-01T00:15:16;4.57;;;4.10;;
7971;SDS011;4031;49.758;6.120;2023-05-01T00:17:42;4.23;;;3.60;;
7971;SDS011;4031;49.758;6.120;2023-05-01T00:20:08;3.90;;;3.50;;
7971;SDS011;4031;49.758;6.120;2023-05-01T00:22:34;3.43;;;3.13;;
7971;SDS011;4031;49.758;6.120;2023-05-01T00:25:00;3.80;;;3.40;;
7971;SDS011;4031;49.758;6.120;2023-05-01T00:27:25;3.43;;;3.13;;
7971;SDS011;4031;49.758;6.120;2023-05-01T00:29:51;4.43;;;4.03;;
7971;SDS011;4031;49.758;6.120;2023-05-01T00:32:17;4.20;;;3.80;;
7971;SDS011;4031;49.758;6.120;2023-05-01T00:34:42;3.63;;;3.33;;
7971;SDS011;4031;49.758;6.120;2023-05-01T00:37:11;4.00;;;2.90;;
7971;SDS011;4031;49.758;6.120;2023-05-01T00:39:36;4.43;;;3.70;;
7971;SDS011;4031;49.758;6.120;2023-05-01T00:42:03;4.30;;;3.30;;
7971;SDS011;4031;49.758;6.120;2023-05-01T00:44:28;4.30;;;3.90;;
7971;SDS011;4031;49.758;6.120;2023-05-01T00:46:54;3.87;;;3.47;;
7971;SDS011;4031;49.758;6.120;2023-05-01T00:49:22;4.30;;;3.70;;
7971;SDS011;4031;49.758;6.120;2023-05-01T00:51:48;4.43;;;3.13;;
7971;SDS011;4031;49.758;6.120;2023-05-01T00:54:17;5.20;;;3.70;;
7971;SDS011;4031;49.758;6.120;2023-05-01T00:56:44;4.93;;;3.70;;
7971;SDS011;4031;49.758;6.120;2023-05-01T00:59:12;3.40;;;3.20;;
7971;SDS011;4031;49.758;6.120;2023-05-01T01:01:40;3.60;;;3.30;;
7971;SDS011;4031;49.758;6.120;2023-05-01T01:04:06;3.13;;;2.90;;
7971;SDS011;4031;49.758;6.120;2023-05-01T01:06:39;3.43;;;3.17;;
7971;SDS011;4031;49.758;6.120;2023-05-01T01:12:28;3.00;;;2.80;;
7971;SDS011;4031;49.758;6.120;2023-05-01T01:29:03;3.70;;;3.13;;
7971;SDS011;4031;49.758;6.120;2023-05-01T01:31:55;3.57;;;3.27;;
7971;SDS011;4031;49.758;6.120;2023-05-01T01:35:02;5.00;;;3.50;;
7971;SDS011;4031;49.758;6.120;2023-05-01T01:37:34;3.63;;;3.33;;
7971;SDS011;4031;49.758;6.120;2023-05-01T01:42:39;3.77;;;3.47;;
7971;SDS011;4031;49.758;6.120;2023-05-01T01:45:14;5.30;;;3.30;;
7971;SDS011;4031;49.758;6.120;2023-05-01T01:47:47;3.80;;;3.47;;
7971;SDS011;4031;49.758;6.120;2023-05-01T01:50:15;4.83;;;3.90;;
7971;SDS011;4031;49.758;6.120;2023-05-01T01:52:46;4.00;;;3.60;;
7971;SDS011;4031;49.758;6.120;2023-05-01T01:55:15;3.30;;;3.00;;
7971;SDS011;4031;49.758;6.120;2023-05-01T01:57:46;3.60;;;3.30;;
7971;SDS011;4031;49.758;6.120;2023-05-01T02:00:14;5.20;;;3.17;;
7971;SDS011;4031;49.758;6.120;2023-05-01T02:02:41;3.67;;;3.37;;
7971;SDS011;4031;49.758;6.120;2023-05-01T02:05:08;3.93;;;3.60;;
7971;SDS011;4031;49.758;6.120;2023-05-01T02:07:38;4.10;;;3.80;;
7971;SDS011;4031;49.758;6.120;2023-05-01T02:10:05;3.50;;;3.20;;
7971;SDS011;4031;49.758;6.120;2023-05-01T02:12:34;3.77;;;3.47;;
7971;SDS011;4031;49.758;6.120;2023-05-01T02:15:00;4.30;;;3.87;;
7971;SDS011;4031;49.758;6.120;2023-05-01T02:17:27;3.83;;;3.50;;
7971;SDS011;4031;49.758;6.120;2023-05-01T02:19:54;4.10;;;3.57;;
7971;SDS011;4031;49.758;6.120;2023-05-01T02:22:21;4.03;;;3.63;;
7971;SDS011;4031;49.758;6.120;2023-05-01T02:24:52;3.67;;;3.37;;
7971;SDS011;4031;49.758;6.120;2023-05-01T02:27:22;4.07;;;3.20;;
7971;SDS011;4031;49.758;6.120;2023-05-01T02:29:54;3.57;;;3.27;;
7971;SDS011;4031;49.758;6.120;2023-05-01T02:32:21;4.93;;;3.43;;
7971;SDS011;4031;49.758;6.120;2023-05-01T02:34:47;6.23;;;4.00;;
7971;SDS011;4031;49.758;6.120;2023-05-01T02:37:13;4.20;;;3.80;;
7971;SDS011;4031;49.758;6.120;2023-05-01T02:39:40;3.97;;;3.67;;
7971;SDS011;4031;49.758;6.120;2023-05-01T02:42:07;4.47;;;4.10;;
7971;SDS011;4031;49.758;6.120;2023-05-01T02:44:49;3.90;;;3.60;;
7971;SDS011;4031;49.758;6.120;2023-05-01T02:47:19;5.93;;;4.00;;
7971;SDS011;4031;49.758;6.120;2023-05-01T02:49:47;4.93;;;3.70;;
7971;SDS011;4031;49.758;6.120;2023-05-01T02:52:15;3.97;;;3.67;;
7971;SDS011;4031;49.758;6.120;2023-05-01T02:54:43;4.07;;;3.70;;
7971;SDS011;4031;49.758;6.120;2023-05-01T02:57:09;4.00;;;3.70;;
7971;SDS011;4031;49.758;6.120;2023-05-01T02:59:36;3.40;;;3.10;;
7971;SDS011;4031;49.758;6.120;2023-05-01T03:02:02;4.47;;;3.70;;
7971;SDS011;4031;49.758;6.120;2023-05-01T03:04:27;4.13;;;3.50;;
7971;SDS011;4031;49.758;6.120;2023-05-01T03:06:53;3.70;;;3.40;;
7971;SDS011;4031;49.758;6.120;2023-05-01T03:09:19;4.23;;;3.83;;
7971;SDS011;4031;49.758;6.120;2023-05-01T03:11:46;5.20;;;4.20;;
7971;SDS011;4031;49.758;6.120;2023-05-01T03:14:12;4.93;;;4.53;;
7971;SDS011;4031;49.758;6.120;2023-05-01T03:16:37;4.30;;;3.90;;
7971;SDS011;4031;49.758;6.120;2023-05-01T03:19:04;5.37;;;4.30;;
7971;SDS011;4031;49.758;6.120;2023-05-01T03:21:30;4.77;;;4.03;;
7971;SDS011;4031;49.758;6.120;2023-05-01T03:23:56;3.83;;;3.50;;
7971;SDS011;4031;49.758;6.120;2023-05-01T03:26:22;3.97;;;3.67;;
7971;SDS011;4031;49.758;6.120;2023-05-01T03:28:48;7.33;;;4.10;;
7971;SDS011;4031;49.758;6.120;2023-05-01T03:31:14;4.33;;;3.93;;
7971;SDS011;4031;49.758;6.120;2023-05-01T03:33:40;4.17;;;3.77;;
7971;SDS011;4031;49.758;6.120;2023-05-01T03:36:06;4.63;;;4.23;;
7971;SDS011;4031;49.758;6.120;2023-05-01T03:38:35;4.87;;;4.10;;
7971;SDS011;4031;49.758;6.120;2023-05-01T03:41:00;5.30;;;3.60;;
7971;SDS011;4031;49.758;6.120;2023-05-01T03:43:26;4.70;;;4.30;;
7971;SDS011;4031;49.758;6.120;2023-05-01T03:45:52;4.27;;;3.97;;
7971;SDS011;4031;49.758;6.120;2023-05-01T03:48:18;5.63;;;4.17;;
7971;SDS011;4031;49.758;6.120;2023-05-01T03:50:44;4.27;;;3.87;;
7971;SDS011;4031;49.758;6.120;2023-05-01T03:53:10;4.47;;;4.07;;
7971;SDS011;4031;49.758;6.120;2023-05-01T03:55:37;4.80;;;4.40;;
7971;SDS011;4031;49.758;6.120;2023-05-01T03:58:04;5.27;;;4.30;;
7971;SDS011;4031;49.758;6.120;2023-05-01T04:00:31;3.93;;;3.63;;
7971;SDS011;4031;49.758;6.120;2023-05-01T04:02:57;4.80;;;4.40;;
7971;SDS011;4031;49.758;6.120;2023-05-01T04:05:23;4.97;;;4.47;;
7971;SDS011;4031;49.758;6.120;2023-05-01T04:07:49;4.90;;;4.13;;
7971;SDS011;4031;49.758;6.120;2023-05-01T04:10:15;6.40;;;3.90;;
7971;SDS011;4031;49.758;6.120;2023-05-01T04:12:41;5.10;;;4.60;;
7971;SDS011;4031;49.758;6.120;2023-05-01T04:15:07;4.00;;;3.70;;
7971;SDS011;4031;49.758;6.120;2023-05-01T04:17:36;5.80;;;4.70;;
7971;SDS011;4031;49.758;6.120;2023-05-01T04:20:02;4.87;;;4.47;;
7971;SDS011;4031;49.758;6.120;2023-05-01T04:22:30;4.37;;;4.07;;
7971;SDS011;4031;49.758;6.120;2023-05-01T04:24:56;4.43;;;3.77;;
7971;SDS011;4031;49.758;6.120;2023-05-01T04:27:22;4.67;;;4.27;;
7971;SDS011;4031;49.758;6.120;2023-05-01T04:29:48;5.00;;;4.50;;
7971;SDS011;4031;49.758;6.120;2023-05-01T04:32:15;4.67;;;4.20;;
7971;SDS011;4031;49.758;6.120;2023-05-01T04:34:41;5.13;;;3.80;;
7971;SDS011;4031;49.758;6.120;2023-05-01T04:37:10;4.27;;;3.87;;
7971;SDS011;4031;49.758;6.120;2023-05-01T04:39:36;5.23;;;4.30;;
7971;SDS011;4031;49.758;6.120;2023-05-01T04:42:02;4.27;;;3.90;;
7971;SDS011;4031;49.758;6.120;2023-05-01T04:44:29;4.40;;;3.90;;
7971;SDS011;4031;49.758;6.120;2023-05-01T04:46:55;4.50;;;4.10;;
7971;SDS011;4031;49.758;6.120;2023-05-01T04:49:21;3.70;;;3.40;;
7971;SDS011;4031;49.758;6.120;2023-05-01T04:51:46;5.10;;;4.10;;
7971;SDS011;4031;49.758;6.120;2023-05-01T04:54:12;5.83;;;3.97;;
7971;SDS011;4031;49.758;6.120;2023-05-01T04:56:38;4.63;;;3.90;;
7971;SDS011;4031;49.758;6.120;2023-05-01T04:59:04;8.63;;;3.77;;
7971;SDS011;4031;49.758;6.120;2023-05-01T05:01:30;5.33;;;3.77;;
7971;SDS011;4031;49.758;6.120;2023-05-01T05:03:55;5.33;;;3.40;;
7971;SDS011;4031;49.758;6.120;2023-05-01T05:06:21;6.07;;;4.30;;
7971;SDS011;4031;49.758;6.120;2023-05-01T05:08:47;3.57;;;3.27;;
7971;SDS011;4031;49.758;6.120;2023-05-01T05:11:16;3.60;;;3.30;;
7971;SDS011;4031;49.758;6.120;2023-05-01T05:13:42;5.77;;;3.57;;
7971;SDS011;4031;49.758;6.120;2023-05-01T05:16:09;4.57;;;3.60;;
7971;SDS011;4031;49.758;6.120;2023-05-01T05:18:35;4.07;;;3.70;;
7971;SDS011;4031;49.758;6.120;2023-05-01T05:21:09;3.77;;;3.47;;
7971;SDS011;4031;49.758;6.120;2023-05-01T05:23:35;4.10;;;3.70;;
7971;SDS011;4031;49.758;6.120;2023-05-01T05:26:01;5.73;;;3.20;;
7971;SDS011;4031;49.758;6.120;2023-05-01T05:28:27;3.87;;;3.57;;
7971;SDS011;4031;49.758;6.120;2023-05-01T05:30:54;3.97;;;3.67;;
7971;SDS011;4031;49.758;6.120;2023-05-01T05:33:21;5.30;;;3.63;;
7971;SDS011;4031;49.758;6.120;2023-05-01T05:35:49;3.17;;;2.97;;
7971;SDS011;4031;49.758;6.120;2023-05-01T05:38:16;3.87;;;3.50;;
7971;SDS011;4031;49.758;6.120;2023-05-01T05:40:42;3.77;;;3.47;;
7971;SDS011;4031;49.758;6.120;2023-05-01T05:43:07;3.57;;;3.00;;
7971;SDS011;4031;49.758;6.120;2023-05-01T05:45:34;3.80;;;3.37;;
7971;SDS011;4031;49.758;6.120;2023-05-01T05:48:01;3.00;;;2.70;;
7971;SDS011;4031;49.758;6.120;2023-05-01T05:50:27;3.10;;;2.83;;
7971;SDS011;4031;49.758;6.120;2023-05-01T05:52:53;3.07;;;2.87;;
7971;SDS011;4031;49.758;6.120;2023-05-01T05:55:20;3.00;;;2.80;;
7971;SDS011;4031;49.758;6.120;2023-05-01T05:57:45;3.97;;;3.60;;
7971;SDS011;4031;49.758;6.120;2023-05-01T06:00:11;3.20;;;2.97;;
7971;SDS011;4031;49.758;6.120;2023-05-01T06:02:38;3.67;;;3.20;;
7971;SDS011;4031;49.758;6.120;2023-05-01T06:05:04;3.60;;;3.30;;
7971;SDS011;4031;49.758;6.120;2023-05-01T06:07:30;4.10;;;3.73;;
7971;SDS011;4031;49.758;6.120;2023-05-01T06:09:55;3.20;;;2.97;;
7971;SDS011;4031;49.758;6.120;2023-05-01T06:12:29;3.00;;;2.80;;
7971;SDS011;4031;49.758;6.120;2023-05-01T06:14:56;3.77;;;3.00;;
7971;SDS011;4031;49.758;6.120;2023-05-01T06:17:25;4.30;;;3.03;;
7971;SDS011;4031;49.758;6.120;2023-05-01T06:19:51;3.10;;;2.80;;
7971;SDS011;4031;49.758;6.120;2023-05-01T06:22:17;3.77;;;3.23;;
7971;SDS011;4031;49.758;6.120;2023-05-01T06:24:44;3.37;;;3.07;;
7971;SDS011;4031;49.758;6.120;2023-05-01T06:27:10;3.93;;;3.60;;
7971;SDS011;4031;49.758;6.120;2023-05-01T06:29:35;4.00;;;3.60;;
7971;SDS011;4031;49.758;6.120;2023-05-01T06:32:01;3.10;;;2.80;;
7971;SDS011;4031;49.758;6.120;2023-05-01T06:34:28;4.07;;;3.10;;
7971;SDS011;4031;49.758;6.120;2023-05-01T06:36:54;4.43;;;4.03;;
7971;SDS011;4031;49.758;6.120;2023-05-01T06:39:19;3.57;;;3.30;;
7971;SDS011;4031;49.758;6.120;2023-05-01T06:41:45;3.67;;;3.30;;
7971;SDS011;4031;49.758;6.120;2023-05-01T06:44:11;3.70;;;3.47;;
7971;SDS011;4031;49.758;6.120;2023-05-01T06:46:37;4.30;;;3.23;;
7971;SDS011;4031;49.758;6.120;2023-05-01T06:49:03;4.53;;;3.50;;
7971;SDS011;4031;49.758;6.120;2023-05-01T06:51:29;6.70;;;3.50;;
7971;SDS011;4031;49.758;6.120;2023-05-01T06:53:55;3.63;;;3.30;;
7971;SDS011;4031;49.758;6.120;2023-05-01T06:56:21;3.10;;;2.80;;
7971;SDS011;4031;49.758;6.120;2023-05-01T06:58:47;3.13;;;2.83;;
7971;SDS011;4031;49.758;6.120;2023-05-01T07:01:13;4.40;;;4.00;;
7971;SDS011;4031;49.758;6.120;2023-05-01T07:03:38;3.23;;;2.93;;
7971;SDS011;4031;49.758;6.120;2023-05-01T07:06:04;3.50;;;3.20;;
7971;SDS011;4031;49.758;6.120;2023-05-01T07:08:30;7.47;;;3.90;;
7971;SDS011;4031;49.758;6.120;2023-05-01T07:10:56;4.80;;;3.90;;
7971;SDS011;4031;49.758;6.120;2023-05-01T07:13:22;3.40;;;3.10;;
7971;SDS011;4031;49.758;6.120;2023-05-01T07:15:48;4.17;;;3.40;;
7971;SDS011;4031;49.758;6.120;2023-05-01T07:18:14;3.60;;;3.30;;
7971;SDS011;4031;49.758;6.120;2023-05-01T07:20:41;3.87;;;2.87;;
7971;SDS011;4031;49.758;6.120;2023-05-01T07:23:07;3.50;;;3.00;;
7971;SDS011;4031;49.758;6.120;2023-05-01T07:25:33;3.20;;;2.63;;
7971;SDS011;4031;49.758;6.120;2023-05-01T07:28:02;4.40;;;2.50;;
7971;SDS011;4031;49.758;6.120;2023-05-01T07:30:29;4.90;;;2.90;;
7971;SDS011;4031;49.758;6.120;2023-05-01T07:32:55;2.90;;;2.63;;
7971;SDS011;4031;49.758;6.120;2023-05-01T07:35:22;2.37;;;2.17;;
7971;SDS011;4031;49.758;6.120;2023-05-01T07:37:48;2.20;;;2.00;;
7971;SDS011;4031;49.758;6.120;2023-05-01T07:40:15;1.90;;;1.80;;
7971;SDS011;4031;49.758;6.120;2023-05-01T07:42:41;2.13;;;1.97;;
7971;SDS011;4031;49.758;6.120;2023-05-01T07:45:07;2.50;;;2.30;;
7971;SDS011;4031;49.758;6.120;2023-05-01T07:47:33;2.57;;;2.13;;
7971;SDS011;4031;49.758;6.120;2023-05-01T07:50:00;2.07;;;1.97;;
7971;SDS011;4031;49.758;6.120;2023-05-01T07:52:27;3.23;;;1.63;;
7971;SDS011;4031;49.758;6.120;2023-05-01T07:54:53;2.13;;;2.03;;
7971;SDS011;4031;49.758;6.120;2023-05-01T07:57:19;3.50;;;2.30;;
7971;SDS011;4031;49.758;6.120;2023-05-01T07:59:47;2.40;;;2.30;;
7971;SDS011;4031;49.758;6.120;2023-05-01T08:02:12;4.03;;;2.10;;
7971;SDS011;4031;49.758;6.120;2023-05-01T08:04:41;2.17;;;2.07;;
7971;SDS011;4031;49.758;6.120;2023-05-01T08:07:06;3.30;;;2.10;;
7971;SDS011;4031;49.758;6.120;2023-05-01T08:09:32;2.23;;;2.13;;
7971;SDS011;4031;49.758;6.120;2023-05-01T08:11:58;2.40;;;2.20;;
7971;SDS011;4031;49.758;6.120;2023-05-01T08:14:24;2.07;;;1.87;;
7971;SDS011;4031;49.758;6.120;2023-05-01T08:16:50;2.00;;;1.90;;
7971;SDS011;4031;49.758;6.120;2023-05-01T08:19:19;2.10;;;1.90;;
7971;SDS011;4031;49.758;6.120;2023-05-01T08:21:45;4.13;;;2.50;;
7971;SDS011;4031;49.758;6.120;2023-05-01T08:24:10;1.93;;;1.67;;
7971;SDS011;4031;49.758;6.120;2023-05-01T08:26:36;3.03;;;2.47;;
7971;SDS011;4031;49.758;6.120;2023-05-01T08:29:02;2.47;;;2.20;;
7971;SDS011;4031;49.758;6.120;2023-05-01T08:31:28;2.57;;;2.20;;
7971;SDS011;4031;49.758;6.120;2023-05-01T08:33:53;1.93;;;1.80;;
7971;SDS011;4031;49.758;6.120;2023-05-01T08:36:19;2.50;;;2.30;;
7971;SDS011;4031;49.758;6.120;2023-05-01T08:38:45;2.10;;;2.00;;
7971;SDS011;4031;49.758;6.120;2023-05-01T08:41:14;2.30;;;2.10;;
7971;SDS011;4031;49.758;6.120;2023-05-01T08:43:46;2.73;;;2.10;;
7971;SDS011;4031;49.758;6.120;2023-05-01T08:46:13;2.97;;;2.50;;
7971;SDS011;4031;49.758;6.120;2023-05-01T08:49:01;4.47;;;2.20;;
7971;SDS011;4031;49.758;6.120;2023-05-01T08:51:30;2.23;;;2.00;;
7971;SDS011;4031;49.758;6.120;2023-05-01T08:53:58;2.37;;;2.07;;
7971;SDS011;4031;49.758;6.120;2023-05-01T08:56:26;2.03;;;1.93;;
7971;SDS011;4031;49.758;6.120;2023-05-01T08:58:53;2.77;;;2.57;;
7971;SDS011;4031;49.758;6.120;2023-05-01T09:01:21;3.73;;;2.00;;
7971;SDS011;4031;49.758;6.120;2023-05-01T09:03:48;2.10;;;2.00;;
7971;SDS011;4031;49.758;6.120;2023-05-01T09:06:16;2.50;;;2.17;;
7971;SDS011;4031;49.758;6.120;2023-05-01T09:08:43;1.90;;;1.80;;
7971;SDS011;4031;49.758;6.120;2023-05-01T09:11:08;2.70;;;2.03;;
7971;SDS011;4031;49.758;6.120;2023-05-01T09:13:36;2.13;;;1.87;;
7971;SDS011;4031;49.758;6.120;2023-05-01T09:16:03;2.60;;;1.97;;
7971;SDS011;4031;49.758;6.120;2023-05-01T09:18:30;1.73;;;1.63;;
7971;SDS011;4031;49.758;6.120;2023-05-01T09:20:58;2.87;;;2.03;;
7971;SDS011;4031;49.758;6.120;2023-05-01T09:23:23;1.93;;;1.83;;
7971;SDS011;4031;49.758;6.120;2023-05-01T09:25:49;2.57;;;2.17;;
7971;SDS011;4031;49.758;6.120;2023-05-01T09:28:16;2.10;;;1.80;;
7971;SDS011;4031;49.758;6.120;2023-05-01T09:30:41;1.93;;;1.80;;
7971;SDS011;4031;49.758;6.120;2023-05-01T09:33:11;3.00;;;1.80;;
7971;SDS011;4031;49.758;6.120;2023-05-01T09:35:49;2.00;;;1.80;;
7971;SDS011;4031;49.758;6.120;2023-05-01T09:38:16;1.80;;;1.70;;
7971;SDS011;4031;49.758;6.120;2023-05-01T09:40:44;2.10;;;1.90;;
7971;SDS011;4031;49.758;6.120;2023-05-01T09:43:10;1.93;;;1.83;;
7971;SDS011;4031;49.758;6.120;2023-05-01T09:45:36;1.93;;;1.83;;
7971;SDS011;4031;49.758;6.120;2023-05-01T09:48:07;2.13;;;1.93;;
7971;SDS011;4031;49.758;6.120;2023-05-01T09:50:34;3.07;;;2.20;;
7971;SDS011;4031;49.758;6.120;2023-05-01T09:53:01;3.57;;;2.00;;
7971;SDS011;4031;49.758;6.120;2023-05-01T09:55:30;1.93;;;1.70;;
7971;SDS011;4031;49.758;6.120;2023-05-01T09:57:56;2.67;;;2.47;;
7971;SDS011;4031;49.758;6.120;2023-05-01T10:00:25;3.00;;;1.97;;
7971;SDS011;4031;49.758;6.120;2023-05-01T10:02:51;2.60;;;2.40;;
7971;SDS011;4031;49.758;6.120;2023-05-01T10:05:18;2.43;;;2.23;;
7971;SDS011;4031;49.758;6.120;2023-05-01T10:07:57;2.40;;;2.20;;
7971;SDS011;4031;49.758;6.120;2023-05-01T10:10:26;5.00;;;2.33;;
7971;SDS011;4031;49.758;6.120;2023-05-01T10:12:52;2.73;;;2.30;;
7971;SDS011;4031;49.758;6.120;2023-05-01T10:15:18;3.43;;;2.53;;
7971;SDS011;4031;49.758;6.120;2023-05-01T10:17:44;2.87;;;2.67;;
7971;SDS011;4031;49.758;6.120;2023-05-01T10:20:13;2.53;;;2.33;;
7971;SDS011;4031;49.758;6.120;2023-05-01T10:22:39;2.60;;;2.40;;
7971;SDS011;4031;49.758;6.120;2023-05-01T10:25:06;2.13;;;2.03;;
7971;SDS011;4031;49.758;6.120;2023-05-01T10:27:34;3.10;;;2.23;;
7971;SDS011;4031;49.758;6.120;2023-05-01T10:30:03;2.27;;;2.13;;
7971;SDS011;4031;49.758;6.120;2023-05-01T10:32:30;1.93;;;1.77;;
7971;SDS011;4031;49.758;6.120;2023-05-01T10:35:01;3.20;;;1.87;;
7971;SDS011;4031;49.758;6.120;2023-05-01T10:43:43;2.47;;;2.30;;
7971;SDS011;4031;49.758;6.120;2023-05-01T10:51:37;2.00;;;1.70;;
7971;SDS011;4031;49.758;6.120;2023-05-01T10:59:02;1.80;;;1.67;;
7971;SDS011;4031;49.758;6.120;2023-05-01T11:01:38;2.73;;;1.90;;
7971;SDS011;4031;49.758;6.120;2023-05-01T11:09:42;1.70;;;1.60;;
7971;SDS011;4031;49.758;6.120;2023-05-01T11:12:13;2.27;;;1.93;;
7971;SDS011;4031;49.758;6.120;2023-05-01T11:15:10;2.30;;;1.90;;
7971;SDS011;4031;49.758;6.120;2023-05-01T11:22:32;2.37;;;2.13;;
7971;SDS011;4031;49.758;6.120;2023-05-01T11:25:00;3.07;;;2.50;;
7971;SDS011;4031;49.758;6.120;2023-05-01T11:27:29;2.00;;;1.90;;
7971;SDS011;4031;49.758;6.120;2023-05-01T11:29:55;2.20;;;2.10;;
7971;SDS011;4031;49.758;6.120;2023-05-01T11:32:25;3.50;;;2.50;;
7971;SDS011;4031;49.758;6.120;2023-05-01T11:34:53;2.47;;;2.30;;
7971;SDS011;4031;49.758;6.120;2023-05-01T11:37:37;2.67;;;2.43;;
7971;SDS011;4031;49.758;6.120;2023-05-01T11:45:30;2.77;;;2.57;;
7971;SDS011;4031;49.758;6.120;2023-05-01T11:47:56;2.40;;;2.20;;
7971;SDS011;4031;49.758;6.120;2023-05-01T11:50:30;3.70;;;2.47;;
7971;SDS011;4031;49.758;6.120;2023-05-01T11:52:57;1.97;;;1.87;;
7971;SDS011;4031;49.758;6.120;2023-05-01T11:55:29;2.77;;;2.57;;
7971;SDS011;4031;49.758;6.120;2023-05-01T11:57:56;2.70;;;2.50;;
7971;SDS011;4031;49.758;6.120;2023-05-01T12:00:26;3.00;;;2.80;;
7971;SDS011;4031;49.758;6.120;2023-05-01T12:02:58;3.03;;;2.80;;
7971;SDS011;4031;49.758;6.120;2023-05-01T12:05:36;3.63;;;3.33;;
7971;SDS011;4031;49.758;6.120;2023-05-01T12:10:52;4.03;;;3.63;;
7971;SDS011;4031;49.758;6.120;2023-05-01T12:13:22;3.40;;;3.10;;
7971;SDS011;4031;49.758;6.120;2023-05-01T12:15:52;4.13;;;3.60;;
7971;SDS011;4031;49.758;6.120;2023-05-01T12:18:19;3.33;;;2.67;;
7971;SDS011;4031;49.758;6.120;2023-05-01T12:20:46;6.27;;;4.23;;
7971;SDS011;4031;49.758;6.120;2023-05-01T12:23:18;4.27;;;3.90;;
7971;SDS011;4031;49.758;6.120;2023-05-01T12:25:59;3.70;;;3.40;;
7971;SDS011;4031;49.758;6.120;2023-05-01T12:28:25;4.60;;;3.50;;
7971;SDS011;4031;49.758;6.120;2023-05-01T12:30:51;3.67;;;3.37;;
7971;SDS011;4031;49.758;6.120;2023-05-01T12:33:20;3.70;;;3.40;;
7971;SDS011;4031;49.758;6.120;2023-05-01T12:35:47;3.77;;;3.47;;
7971;SDS011;4031;49.758;6.120;2023-05-01T12:38:18;3.50;;;3.00;;
7971;SDS011;4031;49.758;6.120;2023-05-01T12:40:55;3.53;;;3.23;;
7971;SDS011;4031;49.758;6.120;2023-05-01T12:43:33;3.83;;;3.43;;
7971;SDS011;4031;49.758;6.120;2023-05-01T12:46:01;3.30;;;3.10;;
7971;SDS011;4031;49.758;6.120;2023-05-01T12:48:29;4.30;;;3.47;;
7971;SDS011;4031;49.758;6.120;2023-05-01T12:50:56;4.07;;;3.30;;
7971;SDS011;4031;49.758;6.120;2023-05-01T12:53:26;3.60;;;3.30;;
7971;SDS011;4031;49.758;6.120;2023-05-01T12:55:56;3.90;;;2.83;;
7971;SDS011;4031;49.758;6.120;2023-05-01T12:58:23;4.73;;;3.00;;
7971;SDS011;4031;49.758;6.120;2023-05-01T13:01:01;3.23;;;2.97;;
7971;SDS011;4031;49.758;6.120;2023-05-01T13:03:27;2.97;;;2.70;;
7971;SDS011;4031;49.758;6.120;2023-05-01T13:05:58;4.40;;;2.33;;
7971;SDS011;4031;49.758;6.120;2023-05-01T13:08:32;2.80;;;2.60;;
7971;SDS011;4031;49.758;6.120;2023-05-01T13:11:08;2.90;;;2.67;;
7971;SDS011;4031;49.758;6.120;2023-05-01T13:13:37;3.70;;;3.40;;
7971;SDS011;4031;49.758;6.120;2023-05-01T13:16:07;3.20;;;2.90;;
7971;SDS011;4031;49.758;6.120;2023-05-01T13:21:12;3.90;;;3.60;;
7971;SDS011;4031;49.758;6.120;2023-05-01T13:23:40;3.57;;;3.27;;
7971;SDS011;4031;49.758;6.120;2023-05-01T13:26:07;3.30;;;3.00;;
7971;SDS011;4031;49.758;6.120;2023-05-01T13:28:35;3.20;;;2.97;;
7971;SDS011;4031;49.758;6.120;2023-05-01T13:31:09;4.43;;;3.33;;
7971;SDS011;4031;49.758;6.120;2023-05-01T13:33:38;3.40;;;3.10;;
7971;SDS011;4031;49.758;6.120;2023-05-01T13:36:07;4.37;;;3.80;;
7971;SDS011;4031;49.758;6.120;2023-05-01T13:38:40;5.73;;;4.40;;
7971;SDS011;4031;49.758;6.120;2023-05-01T13:41:12;6.10;;;5.40;;
7971;SDS011;4031;49.758;6.120;2023-05-01T13:43:45;9.73;;;8.47;;
7971;SDS011;4031;49.758;6.120;2023-05-01T13:46:13;9.53;;;7.43;;
7971;SDS011;4031;49.758;6.120;2023-05-01T13:48:41;12.10;;;8.13;;
7971;SDS011;4031;49.758;6.120;2023-05-01T13:51:08;12.77;;;9.60;;
7971;SDS011;4031;49.758;6.120;2023-05-01T13:53:35;9.13;;;7.97;;
7971;SDS011;4031;49.758;6.120;2023-05-01T13:56:03;8.00;;;6.53;;
7971;SDS011;4031;49.758;6.120;2023-05-01T13:58:33;7.57;;;6.97;;
7971;SDS011;4031;49.758;6.120;2023-05-01T14:00:59;8.50;;;6.70;;
7971;SDS011;4031;49.758;6.120;2023-05-01T14:03:25;9.97;;;8.13;;
7971;SDS011;4031;49.758;6.120;2023-05-01T14:06:00;8.80;;;7.90;;
7971;SDS011;4031;49.758;6.120;2023-05-01T14:08:26;7.50;;;6.80;;
7971;SDS011;4031;49.758;6.120;2023-05-01T14:10:53;7.30;;;6.60;;
7971;SDS011;4031;49.758;6.120;2023-05-01T14:13:18;5.60;;;5.00;;
7971;SDS011;4031;49.758;6.120;2023-05-01T14:15:44;4.07;;;3.77;;
7971;SDS011;4031;49.758;6.120;2023-05-01T14:18:13;5.77;;;5.17;;
7971;SDS011;4031;49.758;6.120;2023-05-01T14:20:42;4.93;;;4.43;;
7971;SDS011;4031;49.758;6.120;2023-05-01T14:23:10;4.50;;;4.20;;
7971;SDS011;4031;49.758;6.120;2023-05-01T14:25:41;3.00;;;2.80;;
7971;SDS011;4031;49.758;6.120;2023-05-01T14:28:09;3.37;;;2.47;;
7971;SDS011;4031;49.758;6.120;2023-05-01T14:30:38;2.40;;;2.20;;
7971;SDS011;4031;49.758;6.120;2023-05-01T14:33:05;2.30;;;2.10;;
7971;SDS011;4031;49.758;6.120;2023-05-01T14:35:42;2.77;;;2.57;;
7971;SDS011;4031;49.758;6.120;2023-05-01T14:38:14;1.93;;;1.83;;
7971;SDS011;4031;49.758;6.120;2023-05-01T14:40:42;2.67;;;2.47;;
7971;SDS011;4031;49.758;6.120;2023-05-01T14:43:09;2.40;;;2.30;;
7971;SDS011;4031;49.758;6.120;2023-05-01T14:45:39;5.70;;;2.90;;
7971;SDS011;4031;49.758;6.120;2023-05-01T14:48:06;3.13;;;2.67;;
7971;SDS011;4031;49.758;6.120;2023-05-01T14:50:33;2.50;;;2.30;;
7971;SDS011;4031;49.758;6.120;2023-05-01T14:52:59;2.70;;;2.50;;
7971;SDS011;4031;49.758;6.120;2023-05-01T14:55:26;3.40;;;3.07;;
7971;SDS011;4031;49.758;6.120;2023-05-01T14:57:57;2.40;;;2.07;;
7971;SDS011;4031;49.758;6.120;2023-05-01T15:00:23;2.20;;;2.00;;
7971;SDS011;4031;49.758;6.120;2023-05-01T15:02:50;1.90;;;1.80;;
7971;SDS011;4031;49.758;6.120;2023-05-01T15:05:15;2.77;;;2.47;;
7971;SDS011;4031;49.758;6.120;2023-05-01T15:07:42;1.90;;;1.80;;
7971;SDS011;4031;49.758;6.120;2023-05-01T15:10:08;2.10;;;1.80;;
7971;SDS011;4031;49.758;6.120;2023-05-01T15:12:35;3.00;;;2.00;;
7971;SDS011;4031;49.758;6.120;2023-05-01T15:15:00;2.23;;;2.03;;
7971;SDS011;4031;49.758;6.120;2023-05-01T15:17:27;1.97;;;1.87;;
7971;SDS011;4031;49.758;6.120;2023-05-01T15:19:53;1.83;;;1.73;;
7971;SDS011;4031;49.758;6.120;2023-05-01T15:22:19;2.30;;;2.10;;
7971;SDS011;4031;49.758;6.120;2023-05-01T15:24:44;1.93;;;1.83;;
7971;SDS011;4031;49.758;6.120;2023-05-01T15:27:10;2.80;;;2.60;;
7971;SDS011;4031;49.758;6.120;2023-05-01T15:29:36;2.53;;;2.33;;
7971;SDS011;4031;49.758;6.120;2023-05-01T15:32:03;2.63;;;2.43;;
7971;SDS011;4031;49.758;6.120;2023-05-01T15:34:29;2.83;;;2.63;;
7971;SDS011;4031;49.758;6.120;2023-05-01T15:36:55;3.30;;;2.93;;
7971;SDS011;4031;49.758;6.120;2023-05-01T15:39:21;3.50;;;3.07;;
7971;SDS011;4031;49.758;6.120;2023-05-01T15:41:47;2.67;;;2.47;;
7971;SDS011;4031;49.758;6.120;2023-05-01T15:44:12;3.03;;;2.77;;
7971;SDS011;4031;49.758;6.120;2023-05-01T15:46:39;3.10;;;2.70;;
7971;SDS011;4031;49.758;6.120;2023-05-01T15:49:06;2.80;;;2.60;;
7971;SDS011;4031;49.758;6.120;2023-05-01T15:51:33;3.13;;;2.83;;
7971;SDS011;4031;49.758;6.120;2023-05-01T15:53:59;3.53;;;2.67;;
7971;SDS011;4031;49.758;6.120;2023-05-01T15:56:26;2.80;;;2.40;;
7971;SDS011;4031;49.758;6.120;2023-05-01T15:58:52;3.13;;;2.70;;
7971;SDS011;4031;49.758;6.120;2023-05-01T16:01:17;3.27;;;3.00;;
7971;SDS011;4031;49.758;6.120;2023-05-01T16:03:43;3.90;;;3.60;;
7971;SDS011;4031;49.758;6.120;2023-05-01T16:06:12;4.03;;;3.63;;
7971;SDS011;4031;49.758;6.120;2023-05-01T16:08:40;4.57;;;4.17;;
7971;SDS011;4031;49.758;6.120;2023-05-01T16:11:07;5.27;;;4.70;;
7971;SDS011;4031;49.758;6.120;2023-05-01T16:13:38;4.50;;;4.13;;
7971;SDS011;4031;49.758;6.120;2023-05-01T16:16:09;5.70;;;5.20;;